createdAt,value
2019-04-21T00:00:35.499Z,11.70
2019-04-21T00:01:38.746Z,11.67
2019-04-21T00:02:37.740Z,11.65
2019-04-21T00:03:40.792Z,11.62
2019-04-21T00:04:48.217Z,11.63
2019-04-21T00:05:53.312Z,11.63
2019-04-21T00:07:01.276Z,11.62
2019-04-21T00:07:50.810Z,11.60
2019-04-21T00:08:56.076Z,11.58
2019-04-21T00:10:59.409Z,11.49
2019-04-21T00:11:59.140Z,11.44
2019-04-21T00:12:52.060Z,11.40
2019-04-21T00:13:46.776Z,11.35
2019-04-21T00:14:46.135Z,11.27
2019-04-21T00:15:40.756Z,11.19
2019-04-21T00:16:44.119Z,11.12
2019-04-21T00:17:35.075Z,11.05
2019-04-21T00:18:40.886Z,10.97
2019-04-21T00:19:37.053Z,10.87
2019-04-21T00:20:40.851Z,10.84
2019-04-21T00:21:40.474Z,10.82
2019-04-21T00:22:44.454Z,10.75
2019-04-21T00:23:55.361Z,10.68
2019-04-21T00:24:50.732Z,10.67
2019-04-21T00:25:50.021Z,10.61
2019-04-21T00:26:55.675Z,10.59
2019-04-21T00:27:51.959Z,10.61
2019-04-21T00:28:59.412Z,10.58
2019-04-21T00:29:51.905Z,10.55
2019-04-21T00:30:50.512Z,10.55
2019-04-21T00:31:45.757Z,10.51
2019-04-21T00:32:44.999Z,10.49
2019-04-21T00:33:39.051Z,10.48
2019-04-21T00:34:34.275Z,10.46
2019-04-21T00:35:41.468Z,10.45
2019-04-21T00:36:47.373Z,10.42
2019-04-21T00:37:53.404Z,10.39
2019-04-21T00:39:08.309Z,10.38
2019-04-21T00:40:01.880Z,10.36
2019-04-21T00:40:56.518Z,10.34
2019-04-21T00:41:53.696Z,10.30
2019-04-21T00:42:48.444Z,10.30
2019-04-21T00:43:49.365Z,10.30
2019-04-21T00:44:54.229Z,10.28
2019-04-21T00:45:44.933Z,10.27
2019-04-21T00:46:47.647Z,10.27
2019-04-21T00:47:51.118Z,10.30
2019-04-21T00:48:55.027Z,10.27
2019-04-21T00:49:56.561Z,10.28
2019-04-21T00:51:10.700Z,10.25
2019-04-21T00:52:02.206Z,10.28
2019-04-21T00:53:00.757Z,10.30
2019-04-21T00:55:10.067Z,10.31
2019-04-21T00:55:59.874Z,10.31
2019-04-21T00:57:01.326Z,10.31
2019-04-21T00:57:58.650Z,10.28
2019-04-21T00:59:01.232Z,10.25
2019-04-21T00:59:52.254Z,10.25
2019-04-21T01:00:57.087Z,10.24
2019-04-21T01:01:55.593Z,10.21
2019-04-21T01:02:57.637Z,10.20
2019-04-21T01:03:58.109Z,10.20
2019-04-21T01:05:01.220Z,10.21
2019-04-21T01:06:10.045Z,10.21
2019-04-21T01:06:55.957Z,10.21
2019-04-21T01:07:55.897Z,10.20
2019-04-21T01:08:53.183Z,10.21
2019-04-21T01:09:48.821Z,10.18
2019-04-21T01:10:49.181Z,10.18
2019-04-21T01:11:57.576Z,10.13
2019-04-21T01:12:58.989Z,10.13
2019-04-21T01:14:01.932Z,10.13
2019-04-21T01:14:58.131Z,10.10
2019-04-21T01:15:54.564Z,10.05
2019-04-21T01:16:57.394Z,10.02
2019-04-21T01:17:53.212Z,10.05
2019-04-21T01:18:59.107Z,10.06
2019-04-21T01:19:50.624Z,10.06
2019-04-21T01:20:33.194Z,10.06
2019-04-21T01:21:32.184Z,10.03
2019-04-21T01:22:32.195Z,10.03
2019-04-21T01:23:32.173Z,10.02
2019-04-21T01:24:36.165Z,9.97
2019-04-21T01:25:39.322Z,9.95
2019-04-21T01:26:43.815Z,9.91
2019-04-21T01:27:55.125Z,9.91
2019-04-21T01:28:52.326Z,9.91
2019-04-21T01:29:56.607Z,9.92
2019-04-21T01:30:52.034Z,9.91
2019-04-21T01:31:48.488Z,9.90
2019-04-21T01:32:53.296Z,9.90
2019-04-21T01:33:59.552Z,9.88
2019-04-21T01:34:56.191Z,9.87
2019-04-21T01:35:55.513Z,9.84
2019-04-21T01:36:53.026Z,9.85
2019-04-21T01:37:55.736Z,9.85
2019-04-21T01:38:55.105Z,9.82
2019-04-21T01:39:58.380Z,9.80
2019-04-21T01:40:57.146Z,9.77
2019-04-21T01:41:57.343Z,9.74
2019-04-21T01:42:53.967Z,9.74
2019-04-21T01:43:50.333Z,9.70
2019-04-21T01:44:53.530Z,9.70
2019-04-21T01:45:49.378Z,9.69
2019-04-21T01:46:48.671Z,9.66
2019-04-21T01:47:52.137Z,9.67
2019-04-21T01:48:49.391Z,9.70
2019-04-21T01:49:43.200Z,9.72
2019-04-21T01:50:53.871Z,9.73
2019-04-21T01:52:02.894Z,9.73
2019-04-21T01:52:57.705Z,9.70
2019-04-21T01:53:56.475Z,9.66
2019-04-21T01:54:55.850Z,9.66
2019-04-21T01:55:54.555Z,9.63
2019-04-21T01:56:53.905Z,9.64
2019-04-21T01:57:51.221Z,9.66
2019-04-21T01:58:42.931Z,9.66
2019-04-21T01:59:48.900Z,9.67
2019-04-21T02:00:48.486Z,9.72
2019-04-21T02:01:52.749Z,9.73
2019-04-21T02:03:04.310Z,9.72
2019-04-21T02:04:57.282Z,9.73
2019-04-21T02:06:00.014Z,9.72
2019-04-21T02:07:01.337Z,9.72
2019-04-21T02:07:52.363Z,9.67
2019-04-21T02:08:49.047Z,9.59
2019-04-21T02:10:03.377Z,9.58
2019-04-21T02:11:00.303Z,9.54
2019-04-21T02:11:56.562Z,9.52
2019-04-21T02:12:50.878Z,9.49
2019-04-21T02:14:02.018Z,9.48
2019-04-21T02:15:00.749Z,9.47
2019-04-21T02:15:56.065Z,9.44
2019-04-21T02:16:54.021Z,9.39
2019-04-21T02:17:54.062Z,9.34
2019-04-21T02:18:49.648Z,9.34
2019-04-21T02:19:51.736Z,9.34
2019-04-21T02:20:41.332Z,9.29
2019-04-21T02:21:47.457Z,9.22
2019-04-21T02:23:10.023Z,9.16
2019-04-21T02:24:01.174Z,9.12
2019-04-21T02:24:58.358Z,9.05
2019-04-21T02:25:57.430Z,9.05
2019-04-21T02:26:57.252Z,9.05
2019-04-21T02:28:01.143Z,9.05
2019-04-21T02:29:01.941Z,9.05
2019-04-21T02:29:55.959Z,9.03
2019-04-21T02:32:21.717Z,9.08
2019-04-21T02:33:08.823Z,9.12
2019-04-21T02:34:04.499Z,9.11
2019-04-21T02:36:15.459Z,9.09
2019-04-21T02:37:17.685Z,9.08
2019-04-21T02:38:08.947Z,9.05
2019-04-21T02:40:57.312Z,9.05
2019-04-21T02:42:05.399Z,9.02
2019-04-21T02:43:05.394Z,8.96
2019-04-21T02:44:10.379Z,8.95
2019-04-21T02:45:03.848Z,8.95
2019-04-21T02:46:05.462Z,8.95
2019-04-21T02:47:09.227Z,8.93
2019-04-21T02:48:14.643Z,8.93
2019-04-21T02:49:11.286Z,8.92
2019-04-21T02:50:13.413Z,8.90
2019-04-21T02:51:03.948Z,8.90
2019-04-21T02:52:29.180Z,8.89
2019-04-21T02:53:07.014Z,8.87
2019-04-21T02:54:32.306Z,8.87
2019-04-21T02:55:03.854Z,8.86
2019-04-21T02:56:00.679Z,8.86
2019-04-21T02:59:05.337Z,8.87
2019-04-21T03:00:06.831Z,8.87
2019-04-21T03:01:07.512Z,8.84
2019-04-21T03:03:26.125Z,8.81
2019-04-21T03:04:00.667Z,8.77
2019-04-21T03:05:11.219Z,8.75
2019-04-21T03:06:18.675Z,8.74
2019-04-21T03:07:09.437Z,8.71
2019-04-21T03:08:05.711Z,8.68
2019-04-21T03:09:10.956Z,8.66
2019-04-21T03:09:57.914Z,8.63
2019-04-21T03:11:10.390Z,8.60
2019-04-21T03:13:08.983Z,8.59
2019-04-21T03:14:08.955Z,8.57
2019-04-21T03:15:06.223Z,8.57
2019-04-21T03:16:10.101Z,8.56
2019-04-21T03:17:05.619Z,8.53
2019-04-21T03:18:04.478Z,8.53
2019-04-21T03:20:03.005Z,8.53
2019-04-21T03:21:15.917Z,8.50
2019-04-21T03:22:05.134Z,8.45
2019-04-21T03:23:16.167Z,8.39
2019-04-21T03:24:05.556Z,8.31
2019-04-21T03:26:10.274Z,8.23
2019-04-21T03:29:03.638Z,8.23
2019-04-21T03:36:37.174Z,8.03
2019-04-21T03:38:13.062Z,8.05
2019-04-21T03:39:01.671Z,8.03
2019-04-21T03:39:59.345Z,8.03
2019-04-21T03:41:08.580Z,8.06
2019-04-21T03:42:07.384Z,8.06
2019-04-21T03:43:07.904Z,8.08
2019-04-21T03:44:13.040Z,8.08
2019-04-21T03:45:23.419Z,8.11
2019-04-21T03:45:58.270Z,8.13
2019-04-21T03:47:07.812Z,8.13
2019-04-21T03:48:01.062Z,8.09
2019-04-21T03:51:09.439Z,8.03
2019-04-21T03:52:15.083Z,8.03
2019-04-21T03:53:03.523Z,8.02
2019-04-21T03:54:00.017Z,8.02
2019-04-21T03:55:25.530Z,8.02
2019-04-21T03:57:19.983Z,8.02
2019-04-21T03:58:19.673Z,8.02
2019-04-21T04:00:06.242Z,8.03
2019-04-21T04:04:00.768Z,8.05
2019-04-21T04:05:03.658Z,8.06
2019-04-21T04:06:09.103Z,8.08
2019-04-21T04:07:12.930Z,8.09
2019-04-21T04:08:17.253Z,8.11
2019-04-21T04:09:09.249Z,8.11
2019-04-21T04:10:08.415Z,8.11
2019-04-21T04:11:58.402Z,8.09
2019-04-21T04:13:09.590Z,8.13
2019-04-21T04:14:12.923Z,8.11
2019-04-21T04:15:03.016Z,8.11
2019-04-21T04:17:14.575Z,8.09
2019-04-21T04:18:04.175Z,8.09
2019-04-21T04:18:57.834Z,8.06
2019-04-21T04:20:22.756Z,8.03
2019-04-21T04:21:16.859Z,8.02
2019-04-21T04:22:06.042Z,8.01
2019-04-21T04:23:03.362Z,8.01
2019-04-21T04:25:07.404Z,8.01
2019-04-21T04:27:08.067Z,8.03
2019-04-21T04:30:07.974Z,8.03
2019-04-21T04:32:00.917Z,8.08
2019-04-21T04:33:00.581Z,8.06
2019-04-21T04:34:10.418Z,8.05
2019-04-21T04:35:03.358Z,8.08
2019-04-21T04:37:05.636Z,8.09
2019-04-21T04:38:03.663Z,8.08
2019-04-21T04:39:23.033Z,8.05
2019-04-21T04:41:06.280Z,8.03
2019-04-21T04:42:21.781Z,8.03
2019-04-21T04:43:07.500Z,8.05
2019-04-21T04:44:11.540Z,8.08
2019-04-21T04:45:58.897Z,8.11
2019-04-21T04:49:11.120Z,8.11
2019-04-21T04:51:14.395Z,8.16
2019-04-21T04:52:56.072Z,8.21
2019-04-21T04:53:58.707Z,8.23
2019-04-21T04:56:06.104Z,8.28
2019-04-21T04:57:08.583Z,8.34
2019-04-21T05:00:13.600Z,8.54
2019-04-21T05:01:24.677Z,8.63
2019-04-21T05:02:15.216Z,8.68
2019-04-21T05:03:03.341Z,8.74
2019-04-21T05:04:10.173Z,8.78
2019-04-21T05:06:14.677Z,8.92
2019-04-21T05:07:11.947Z,8.97
2019-04-21T05:08:24.362Z,9.02
2019-04-21T05:09:15.431Z,9.05
2019-04-21T05:09:59.508Z,9.12
2019-04-21T05:11:07.916Z,9.18
2019-04-21T05:11:55.409Z,9.21
2019-04-21T05:13:04.222Z,9.29
2019-04-21T05:14:59.263Z,9.36
2019-04-21T05:16:02.180Z,9.37
2019-04-21T05:17:02.564Z,9.45
2019-04-21T05:17:57.930Z,9.56
2019-04-21T05:21:03.834Z,10.02
2019-04-21T05:22:01.708Z,10.20
2019-04-21T05:22:54.485Z,10.45
2019-04-21T05:23:54.110Z,10.82
2019-04-21T05:24:52.363Z,11.13
2019-04-21T05:25:48.096Z,11.37
2019-04-21T05:26:49.409Z,11.68
2019-04-21T05:27:49.768Z,12.07
2019-04-21T05:28:44.887Z,12.37
2019-04-21T05:29:53.581Z,12.48
2019-04-21T05:30:58.413Z,12.58
2019-04-21T05:32:09.183Z,13.01
2019-04-21T05:32:53.971Z,13.64
2019-04-21T05:33:53.030Z,14.41
2019-04-21T05:34:52.266Z,15.26
2019-04-21T05:35:48.942Z,16.10
2019-04-21T05:36:52.034Z,16.76
2019-04-21T05:37:50.384Z,17.20
2019-04-21T05:38:47.634Z,17.73
2019-04-21T05:39:48.969Z,18.19
2019-04-21T05:40:45.413Z,18.60
2019-04-21T05:41:41.403Z,18.94
2019-04-21T05:42:45.883Z,19.32
2019-04-21T05:43:54.417Z,19.63
2019-04-21T05:44:59.839Z,19.96
2019-04-21T05:45:52.008Z,20.22
2019-04-21T05:47:01.855Z,20.36
2019-04-21T05:47:56.302Z,20.33
2019-04-21T05:48:52.277Z,20.19
2019-04-21T05:49:51.276Z,20.17
2019-04-21T05:50:50.418Z,20.34
2019-04-21T05:51:46.586Z,20.66
2019-04-21T05:52:45.952Z,20.93
2019-04-21T05:53:56.981Z,21.10
2019-04-21T05:54:57.312Z,21.26
2019-04-21T05:56:52.643Z,21.69
2019-04-21T05:57:53.317Z,21.92
2019-04-21T05:58:54.143Z,22.19
2019-04-21T05:59:51.655Z,22.44
2019-04-21T06:01:06.659Z,22.49
2019-04-21T06:01:57.956Z,22.62
2019-04-21T06:02:57.812Z,22.86
2019-04-21T06:03:57.137Z,23.16
2019-04-21T06:06:00.931Z,23.40
2019-04-21T06:07:02.102Z,23.40
2019-04-21T06:07:52.397Z,23.56
2019-04-21T06:08:48.021Z,23.74
2019-04-21T06:09:56.655Z,23.88
2019-04-21T06:10:53.958Z,24.14
2019-04-21T06:11:51.437Z,24.37
2019-04-21T06:12:59.264Z,24.50
2019-04-21T06:13:55.185Z,24.62
2019-04-21T06:14:59.106Z,24.71
2019-04-21T06:16:55.533Z,25.24
2019-04-21T06:17:58.200Z,25.44
2019-04-21T06:19:01.648Z,25.66
2019-04-21T06:19:56.925Z,25.81
2019-04-21T06:20:54.576Z,25.98
2019-04-21T06:21:50.887Z,26.11
2019-04-21T06:22:51.999Z,26.06
2019-04-21T06:23:50.181Z,26.07
2019-04-21T06:25:21.607Z,26.13
2019-04-21T06:27:10.935Z,26.27
2019-04-21T06:27:55.080Z,26.45
2019-04-21T06:28:50.375Z,26.63
2019-04-21T06:29:55.687Z,26.74
2019-04-21T06:31:01.535Z,26.88
2019-04-21T06:32:52.797Z,26.63
2019-04-21T06:33:51.558Z,26.60
2019-04-21T06:36:12.681Z,26.93
2019-04-21T06:36:57.283Z,27.01
2019-04-21T06:37:49.223Z,26.76
2019-04-21T06:40:10.020Z,26.70
2019-04-21T06:41:00.383Z,26.96
2019-04-21T06:41:51.092Z,26.29
2019-04-21T06:43:08.318Z,26.41
2019-04-21T06:45:53.987Z,26.88
2019-04-21T06:46:51.722Z,26.83
2019-04-21T06:48:02.180Z,26.96
2019-04-21T06:48:55.709Z,27.08
2019-04-21T06:49:50.788Z,27.16
2019-04-21T06:50:52.542Z,27.37
2019-04-21T06:51:58.138Z,27.55
2019-04-21T06:52:53.923Z,27.61
2019-04-21T06:54:02.082Z,27.67
2019-04-21T06:54:54.870Z,27.73
2019-04-21T06:55:52.503Z,27.66
2019-04-21T06:56:51.609Z,28.08
2019-04-21T06:57:53.299Z,28.09
2019-04-21T06:58:51.416Z,28.08
2019-04-21T06:59:51.008Z,28.10
2019-04-21T07:00:50.952Z,27.90
2019-04-21T07:02:22.500Z,27.98
2019-04-21T07:03:01.230Z,28.00
2019-04-21T07:04:02.048Z,27.61
2019-04-21T07:04:56.000Z,27.60
2019-04-21T07:05:57.287Z,27.90
2019-04-21T07:06:56.317Z,28.23
2019-04-21T07:08:07.598Z,28.49
2019-04-21T07:09:02.532Z,28.31
2019-04-21T07:09:57.439Z,28.49
2019-04-21T07:10:51.794Z,28.49
2019-04-21T07:11:47.854Z,27.98
2019-04-21T07:12:51.110Z,28.33
2019-04-21T07:14:01.748Z,28.65
2019-04-21T07:14:56.284Z,28.59
2019-04-21T07:15:50.195Z,28.59
2019-04-21T07:17:49.909Z,28.34
2019-04-21T07:19:01.102Z,27.50
2019-04-21T07:19:57.145Z,27.48
2019-04-21T07:20:56.582Z,26.51
2019-04-21T07:21:52.549Z,25.99
2019-04-21T07:22:59.512Z,26.29
2019-04-21T07:23:53.762Z,27.08
2019-04-21T07:24:48.226Z,27.30
2019-04-21T07:25:51.935Z,26.93
2019-04-21T07:27:52.678Z,27.94
2019-04-21T07:28:56.871Z,28.71
2019-04-21T07:29:55.609Z,29.07
2019-04-21T07:31:00.524Z,29.61
2019-04-21T07:31:59.171Z,30.03
2019-04-21T07:32:55.307Z,30.44
2019-04-21T07:34:03.640Z,30.23
2019-04-21T07:34:54.598Z,30.02
2019-04-21T07:35:51.813Z,29.89
2019-04-21T07:37:53.614Z,29.77
2019-04-21T07:38:49.739Z,29.69
2019-04-21T07:39:49.374Z,29.89
2019-04-21T07:40:45.501Z,29.62
2019-04-21T07:41:44.080Z,29.13
2019-04-21T07:42:42.899Z,29.12
2019-04-21T07:43:44.134Z,29.10
2019-04-21T07:44:46.079Z,29.20
2019-04-21T07:45:45.981Z,29.57
2019-04-21T07:46:46.424Z,29.57
2019-04-21T07:47:50.677Z,29.73
2019-04-21T07:48:49.446Z,29.71
2019-04-21T07:49:56.167Z,30.13
2019-04-21T07:50:52.057Z,30.17
2019-04-21T07:51:50.938Z,30.26
2019-04-21T07:52:53.607Z,29.62
2019-04-21T07:53:59.655Z,29.55
2019-04-21T07:54:58.510Z,29.49
2019-04-21T07:55:30.205Z,29.76
2019-04-21T07:56:34.952Z,30.13
2019-04-21T07:57:47.883Z,30.21
2019-04-21T07:58:56.340Z,30.02
2019-04-21T07:59:55.144Z,30.10
2019-04-21T08:01:50.039Z,30.26
2019-04-21T08:02:49.581Z,29.27
2019-04-21T08:03:51.963Z,29.16
2019-04-21T08:05:52.696Z,29.62
2019-04-21T08:07:54.225Z,30.18
2019-04-21T08:08:51.072Z,29.46
2019-04-21T08:09:47.313Z,29.50
2019-04-21T08:10:47.079Z,29.61
2019-04-21T08:11:43.088Z,28.83
2019-04-21T08:12:48.914Z,28.06
2019-04-21T08:14:02.105Z,27.45
2019-04-21T08:14:55.707Z,27.61
2019-04-21T08:16:04.707Z,27.90
2019-04-21T08:16:55.572Z,28.83
2019-04-21T08:17:47.136Z,29.69
2019-04-21T08:18:45.621Z,30.32
2019-04-21T08:19:44.610Z,30.38
2019-04-21T08:20:48.055Z,29.61
2019-04-21T08:21:59.840Z,29.16
2019-04-21T08:22:51.733Z,29.53
2019-04-21T08:23:50.311Z,29.69
2019-04-21T08:24:51.865Z,29.94
2019-04-21T08:26:06.491Z,30.05
2019-04-21T08:26:51.435Z,29.73
2019-04-21T08:28:52.397Z,29.49
2019-04-21T08:29:52.211Z,28.15
2019-04-21T08:30:51.185Z,28.60
2019-04-21T08:31:56.251Z,29.22
2019-04-21T08:33:09.215Z,29.62
2019-04-21T08:33:55.322Z,30.31
2019-04-21T08:34:59.492Z,30.46
2019-04-21T08:37:08.754Z,30.29
2019-04-21T08:37:50.807Z,30.27
2019-04-21T08:38:49.568Z,29.84
2019-04-21T08:40:00.637Z,30.21
2019-04-21T08:40:51.590Z,30.10
2019-04-21T08:41:49.615Z,30.43
2019-04-21T08:42:51.056Z,30.86
2019-04-21T08:44:02.515Z,30.71
2019-04-21T08:44:54.188Z,30.74
2019-04-21T08:45:57.340Z,30.96
2019-04-21T08:46:55.107Z,31.41
2019-04-21T08:48:53.028Z,28.53
2019-04-21T08:49:48.633Z,28.10
2019-04-21T08:50:52.595Z,28.08
2019-04-21T08:51:58.391Z,28.30
2019-04-21T08:52:56.415Z,28.97
2019-04-21T08:54:47.203Z,30.01
2019-04-21T08:55:56.601Z,30.26
2019-04-21T08:56:46.675Z,29.65
2019-04-21T08:58:00.882Z,29.00
2019-04-21T08:58:54.191Z,29.31
2019-04-21T08:59:55.138Z,29.44
2019-04-21T09:00:55.202Z,29.76
2019-04-21T09:01:48.794Z,30.21
2019-04-21T09:02:46.666Z,30.61
2019-04-21T09:03:54.491Z,30.61
2019-04-21T09:04:45.832Z,30.93
2019-04-21T09:05:52.599Z,29.99
2019-04-21T09:06:58.914Z,30.11
2019-04-21T09:07:53.704Z,30.31
2019-04-21T09:08:52.262Z,30.49
2019-04-21T09:09:48.762Z,30.62
2019-04-21T09:10:51.820Z,30.93
2019-04-21T09:11:50.916Z,31.18
2019-04-21T09:12:49.135Z,30.93
2019-04-21T09:13:50.654Z,31.37
2019-04-21T09:14:50.563Z,31.29
2019-04-21T09:15:46.289Z,31.10
2019-04-21T09:16:40.815Z,30.99
2019-04-21T09:17:41.414Z,31.05
2019-04-21T09:18:40.440Z,31.25
2019-04-21T09:20:07.565Z,31.00
2019-04-21T09:20:52.582Z,30.62
2019-04-21T09:21:50.284Z,30.59
2019-04-21T09:22:47.751Z,30.51
2019-04-21T09:23:45.319Z,31.36
2019-04-21T09:24:46.844Z,31.74
2019-04-21T09:26:46.609Z,31.42
2019-04-21T09:27:42.479Z,31.37
2019-04-21T09:28:39.647Z,31.52
2019-04-21T09:29:36.725Z,31.79
2019-04-21T09:30:33.787Z,31.70
2019-04-21T09:31:33.855Z,32.05
2019-04-21T09:32:31.377Z,31.20
2019-04-21T09:33:33.464Z,31.45
2019-04-21T09:34:33.181Z,31.74
2019-04-21T09:35:29.166Z,31.36
2019-04-21T09:36:36.131Z,31.67
2019-04-21T09:37:39.977Z,31.60
2019-04-21T09:38:36.275Z,31.57
2019-04-21T09:39:31.480Z,31.98
2019-04-21T09:40:33.914Z,31.95
2019-04-21T09:41:29.640Z,31.73
2019-04-21T09:42:35.960Z,32.11
2019-04-21T09:43:36.415Z,32.02
2019-04-21T09:44:33.309Z,32.35
2019-04-21T09:45:28.582Z,32.61
2019-04-21T09:46:27.626Z,32.56
2019-04-21T09:47:35.064Z,32.16
2019-04-21T09:48:33.601Z,32.08
2019-04-21T09:49:31.739Z,32.37
2019-04-21T09:50:28.055Z,32.31
2019-04-21T09:51:28.077Z,32.12
2019-04-21T09:52:37.144Z,32.41
2019-04-21T09:53:32.856Z,32.61
2019-04-21T09:54:32.012Z,31.92
2019-04-21T09:55:36.437Z,31.30
2019-04-21T09:56:36.145Z,30.76
2019-04-21T09:57:40.700Z,30.89
2019-04-21T09:58:34.655Z,31.37
2019-04-21T09:59:33.529Z,31.85
2019-04-21T10:00:31.375Z,31.79
2019-04-21T10:01:37.146Z,31.67
2019-04-21T10:02:37.627Z,31.85
2019-04-21T10:03:36.109Z,31.92
2019-04-21T10:04:29.000Z,31.37
2019-04-21T10:05:27.351Z,30.10
2019-04-21T10:06:28.251Z,30.71
2019-04-21T10:07:34.283Z,31.37
2019-04-21T10:08:27.902Z,31.78
2019-04-21T10:09:26.928Z,32.15
2019-04-21T10:10:27.518Z,32.53
2019-04-21T10:11:26.982Z,32.29
2019-04-21T10:12:26.860Z,32.60
2019-04-21T10:13:27.452Z,32.85
2019-04-21T10:14:26.891Z,33.08
2019-04-21T10:15:28.326Z,33.19
2019-04-21T10:16:26.840Z,33.09
2019-04-21T10:17:27.575Z,32.90
2019-04-21T10:18:27.316Z,33.09
2019-04-21T10:19:27.496Z,32.53
2019-04-21T10:20:26.838Z,31.95
2019-04-21T10:21:28.014Z,31.90
2019-04-21T10:22:26.804Z,31.37
2019-04-21T10:23:27.439Z,31.87
2019-04-21T10:24:26.754Z,32.17
2019-04-21T10:25:26.749Z,32.75
2019-04-21T10:26:28.455Z,33.01
2019-04-21T10:27:27.334Z,33.53
2019-04-21T10:28:26.921Z,33.28
2019-04-21T10:29:30.042Z,32.86
2019-04-21T10:30:28.705Z,32.49
2019-04-21T10:31:27.025Z,32.59
2019-04-21T10:32:28.105Z,32.56
2019-04-21T10:33:26.666Z,31.90
2019-04-21T10:34:27.398Z,32.02
2019-04-21T10:35:26.654Z,32.15
2019-04-21T10:36:26.881Z,31.78
2019-04-21T10:37:38.933Z,31.45
2019-04-21T10:38:36.626Z,31.63
2019-04-21T10:39:27.624Z,31.25
2019-04-21T10:40:27.814Z,31.11
2019-04-21T10:41:27.565Z,31.28
2019-04-21T10:42:27.003Z,31.64
2019-04-21T10:43:27.465Z,31.95
2019-04-21T10:44:27.333Z,32.00
2019-04-21T10:45:26.593Z,31.48
2019-04-21T10:46:26.715Z,31.81
2019-04-21T10:47:26.989Z,32.16
2019-04-21T10:48:26.520Z,32.46
2019-04-21T10:49:26.674Z,32.79
2019-04-21T10:50:26.780Z,32.82
2019-04-21T10:51:26.530Z,32.86
2019-04-21T10:52:29.223Z,32.66
2019-04-21T10:53:27.029Z,32.26
2019-04-21T10:54:37.895Z,32.57
2019-04-21T10:55:45.087Z,31.93
2019-04-21T10:56:33.236Z,31.63
2019-04-21T10:57:28.450Z,31.60
2019-04-21T10:58:26.715Z,32.08
2019-04-21T10:59:26.882Z,31.89
2019-04-21T11:00:26.408Z,31.67
2019-04-21T11:01:27.342Z,31.98
2019-04-21T11:02:26.480Z,31.72
2019-04-21T11:03:26.868Z,31.72
2019-04-21T11:04:32.362Z,31.81
2019-04-21T11:05:27.362Z,31.33
2019-04-21T11:06:26.557Z,31.32
2019-04-21T11:07:31.392Z,30.89
2019-04-21T11:08:32.263Z,31.20
2019-04-21T11:09:28.379Z,31.55
2019-04-21T11:10:27.698Z,31.52
2019-04-21T11:11:26.345Z,31.18
2019-04-21T11:12:26.288Z,31.07
2019-04-21T11:13:26.433Z,31.52
2019-04-21T11:14:27.211Z,31.11
2019-04-21T11:15:27.436Z,31.55
2019-04-21T11:16:26.886Z,32.07
2019-04-21T11:17:26.250Z,32.31
2019-04-21T11:18:26.271Z,32.01
2019-04-21T11:19:26.224Z,31.95
2019-04-21T11:20:26.910Z,31.90
2019-04-21T11:21:27.138Z,32.30
2019-04-21T11:22:26.206Z,31.37
2019-04-21T11:23:26.996Z,30.89
2019-04-21T11:24:27.133Z,31.52
2019-04-21T11:25:26.288Z,32.11
2019-04-21T11:26:27.493Z,31.55
2019-04-21T11:27:26.825Z,31.47
2019-04-21T11:28:27.249Z,31.98
2019-04-21T11:29:26.353Z,31.48
2019-04-21T11:30:27.428Z,31.17
2019-04-21T11:31:27.204Z,31.04
2019-04-21T11:32:27.298Z,30.46
2019-04-21T11:33:27.135Z,30.20
2019-04-21T11:34:27.196Z,29.99
2019-04-21T11:35:27.531Z,30.46
2019-04-21T11:36:27.110Z,31.14
2019-04-21T11:37:26.136Z,31.55
2019-04-21T11:38:29.993Z,31.11
2019-04-21T11:39:39.253Z,29.64
2019-04-21T11:40:27.666Z,29.16
2019-04-21T11:41:26.007Z,29.90
2019-04-21T11:42:26.019Z,30.69
2019-04-21T11:43:25.979Z,31.05
2019-04-21T11:44:27.022Z,31.72
2019-04-21T11:45:26.320Z,32.07
2019-04-21T11:46:26.798Z,32.41
2019-04-21T11:47:25.947Z,32.07
2019-04-21T11:48:26.223Z,32.05
2019-04-21T11:49:27.652Z,31.18
2019-04-21T11:50:25.942Z,30.27
2019-04-21T11:51:26.973Z,29.64
2019-04-21T11:52:26.858Z,29.37
2019-04-21T11:53:25.880Z,29.43
2019-04-21T11:54:26.742Z,29.25
2019-04-21T11:55:28.323Z,28.67
2019-04-21T11:56:27.216Z,28.50
2019-04-21T11:57:30.431Z,28.43
2019-04-21T11:58:27.818Z,28.19
2019-04-21T11:59:25.915Z,27.97
2019-04-21T12:00:25.799Z,27.97
2019-04-21T12:01:25.845Z,27.72
2019-04-21T12:02:25.805Z,27.72
2019-04-21T12:03:27.366Z,27.85
2019-04-21T12:04:25.787Z,28.15
2019-04-21T12:05:25.750Z,27.95
2019-04-21T12:06:32.334Z,27.45
2019-04-21T12:07:27.242Z,27.47
2019-04-21T12:08:34.338Z,27.29
2019-04-21T12:09:27.323Z,27.08
2019-04-21T12:10:25.714Z,26.81
2019-04-21T12:11:25.704Z,26.67
2019-04-21T12:12:25.686Z,26.55
2019-04-21T12:13:25.669Z,26.30
2019-04-21T12:14:25.985Z,26.13
2019-04-21T12:15:27.010Z,25.80
2019-04-21T12:16:25.700Z,25.62
2019-04-21T12:17:25.966Z,25.61
2019-04-21T12:18:28.226Z,25.55
2019-04-21T12:19:26.996Z,25.52
2019-04-21T12:20:26.420Z,25.51
2019-04-21T12:21:28.291Z,25.37
2019-04-21T12:22:29.977Z,25.40
2019-04-21T12:23:26.859Z,25.44
2019-04-21T12:24:26.755Z,24.81
2019-04-21T12:25:25.584Z,24.61
2019-04-21T12:26:26.374Z,24.89
2019-04-21T12:27:25.750Z,25.06
2019-04-21T12:28:25.874Z,24.89
2019-04-21T12:29:26.857Z,24.88
2019-04-21T12:30:25.527Z,24.94
2019-04-21T12:31:25.568Z,25.11
2019-04-21T12:32:26.350Z,25.24
2019-04-21T12:33:25.465Z,25.24
2019-04-21T12:34:25.934Z,25.21
2019-04-21T12:35:26.114Z,25.12
2019-04-21T12:36:25.450Z,24.86
2019-04-21T12:37:26.617Z,24.84
2019-04-21T12:38:35.382Z,24.99
2019-04-21T12:39:27.074Z,25.07
2019-04-21T12:40:26.387Z,25.24
2019-04-21T12:41:26.584Z,25.31
2019-04-21T12:42:26.857Z,25.43
2019-04-21T12:43:26.493Z,25.49
2019-04-21T12:44:25.362Z,25.40
2019-04-21T12:45:26.099Z,25.46
2019-04-21T12:46:25.711Z,25.41
2019-04-21T12:47:25.900Z,25.29
2019-04-21T12:48:26.221Z,25.12
2019-04-21T12:49:25.612Z,24.99
2019-04-21T12:50:25.808Z,25.06
2019-04-21T12:51:25.981Z,24.85
2019-04-21T12:52:25.323Z,24.92
2019-04-21T12:53:25.597Z,24.93
2019-04-21T12:54:25.866Z,25.06
2019-04-21T12:55:30.577Z,25.14
2019-04-21T12:56:27.417Z,25.16
2019-04-21T12:57:25.504Z,25.15
2019-04-21T12:58:25.586Z,25.04
2019-04-21T12:59:27.227Z,24.97
2019-04-21T13:00:25.182Z,24.93
2019-04-21T13:01:25.162Z,24.84
2019-04-21T13:02:25.474Z,24.78
2019-04-21T13:03:26.551Z,24.69
2019-04-21T13:04:26.008Z,24.74
2019-04-21T13:05:25.418Z,24.77
2019-04-21T13:06:25.535Z,24.79
2019-04-21T13:07:25.743Z,24.77
2019-04-21T13:08:25.170Z,24.61
2019-04-21T13:09:27.487Z,24.63
2019-04-21T13:10:26.398Z,24.75
2019-04-21T13:11:25.504Z,24.86
2019-04-21T13:12:25.085Z,24.82
2019-04-21T13:13:26.153Z,24.75
2019-04-21T13:14:26.129Z,24.79
2019-04-21T13:15:25.374Z,24.88
2019-04-21T13:16:25.430Z,24.77
2019-04-21T13:17:25.595Z,24.84
2019-04-21T13:18:25.031Z,24.96
2019-04-21T13:19:25.310Z,25.03
2019-04-21T13:20:25.399Z,24.93
2019-04-21T13:21:24.955Z,24.93
2019-04-21T13:22:25.936Z,24.97
2019-04-21T13:23:25.010Z,24.89
2019-04-21T13:24:26.145Z,24.89
2019-04-21T13:25:25.620Z,24.93
2019-04-21T13:26:32.810Z,24.81
2019-04-21T13:27:26.865Z,24.79
2019-04-21T13:28:24.968Z,24.86
2019-04-21T13:29:25.959Z,24.81
2019-04-21T13:30:24.872Z,24.77
2019-04-21T13:31:24.880Z,24.81
2019-04-21T13:32:24.971Z,24.89
2019-04-21T13:33:25.178Z,24.96
2019-04-21T13:34:26.192Z,24.93
2019-04-21T13:35:24.817Z,24.94
2019-04-21T13:36:25.645Z,24.89
2019-04-21T13:37:25.693Z,24.92
2019-04-21T13:38:34.600Z,24.97
2019-04-21T13:39:51.749Z,24.93
2019-04-21T13:40:46.149Z,24.84
2019-04-21T13:41:41.509Z,24.81
2019-04-21T13:42:34.201Z,24.88
2019-04-21T13:43:27.231Z,24.92
2019-04-21T13:44:24.868Z,24.97
2019-04-21T13:45:25.953Z,24.96
2019-04-21T13:46:24.972Z,25.01
2019-04-21T13:47:24.942Z,24.99
2019-04-21T13:48:24.694Z,24.89
2019-04-21T13:49:25.344Z,24.86
2019-04-21T13:50:25.584Z,24.85
2019-04-21T13:51:25.055Z,24.78
2019-04-21T13:52:24.742Z,24.69
2019-04-21T13:53:25.049Z,24.53
2019-04-21T13:54:25.415Z,24.46
2019-04-21T13:55:25.482Z,24.44
2019-04-21T13:56:24.798Z,24.37
2019-04-21T13:57:26.211Z,24.29
2019-04-21T13:58:26.329Z,24.36
2019-04-21T13:59:24.615Z,24.40
2019-04-21T14:00:24.548Z,24.46
2019-04-21T14:01:25.608Z,24.48
2019-04-21T14:02:24.798Z,24.50
2019-04-21T14:03:26.538Z,24.46
2019-04-21T14:04:25.273Z,24.46
2019-04-21T14:05:24.573Z,24.47
2019-04-21T14:06:24.683Z,24.48
2019-04-21T14:07:26.040Z,24.58
2019-04-21T14:08:25.273Z,24.65